createdAt,value
2018-12-09T00:00:58.460Z,88.41
2018-12-09T00:01:58.405Z,88.31
2018-12-09T00:02:58.346Z,88.12
2018-12-09T00:03:58.287Z,88.60
2018-12-09T00:04:58.228Z,88.79
2018-12-09T00:05:58.172Z,88.51
2018-12-09T00:06:58.112Z,88.41
2018-12-09T00:07:58.054Z,88.12
2018-12-09T00:08:57.996Z,88.22
2018-12-09T00:09:57.938Z,88.60
2018-12-09T00:10:57.882Z,88.79
2018-12-09T00:11:57.824Z,88.70
2018-12-09T00:12:57.762Z,88.41
2018-12-09T00:13:57.705Z,88.79
2018-12-09T00:14:57.646Z,88.70
2018-12-09T00:15:57.598Z,88.79
2018-12-09T00:16:57.531Z,88.98
2018-12-09T00:17:57.473Z,88.79
2018-12-09T00:18:57.419Z,88.41
2018-12-09T00:19:57.356Z,88.41
2018-12-09T00:20:57.297Z,88.70
2018-12-09T00:21:57.243Z,88.89
2018-12-09T00:22:57.180Z,88.89
2018-12-09T00:23:57.126Z,88.70
2018-12-09T00:24:57.065Z,88.12
2018-12-09T00:25:57.007Z,88.12
2018-12-09T00:26:56.950Z,88.22
2018-12-09T00:27:56.891Z,88.60
2018-12-09T00:28:56.832Z,88.41
2018-12-09T00:29:56.774Z,88.41
2018-12-09T00:30:56.715Z,88.41
2018-12-09T00:31:56.659Z,88.22
2018-12-09T00:32:56.601Z,88.31
2018-12-09T00:33:56.541Z,87.93
2018-12-09T00:34:56.482Z,88.31
2018-12-09T00:35:56.426Z,88.12
2018-12-09T00:36:56.366Z,88.22
2018-12-09T00:37:56.311Z,87.93
2018-12-09T00:38:56.250Z,88.22
2018-12-09T00:39:56.192Z,88.22
2018-12-09T00:40:56.134Z,88.12
2018-12-09T00:41:56.075Z,88.41
2018-12-09T00:42:56.020Z,88.12
2018-12-09T00:43:55.960Z,88.22
2018-12-09T00:44:55.902Z,88.31
2018-12-09T00:45:55.843Z,88.22
2018-12-09T00:46:55.787Z,88.03
2018-12-09T00:47:55.733Z,88.31
2018-12-09T00:48:55.670Z,88.60
2018-12-09T00:49:55.610Z,88.41
2018-12-09T00:50:55.552Z,88.22
2018-12-09T00:51:55.495Z,88.41
2018-12-09T00:52:55.436Z,88.31
2018-12-09T00:53:55.379Z,87.93
2018-12-09T00:54:55.320Z,88.60
2018-12-09T00:55:55.263Z,88.03
2018-12-09T00:56:55.207Z,88.12
2018-12-09T00:57:55.145Z,87.93
2018-12-09T00:58:55.088Z,88.31
2018-12-09T00:59:55.031Z,88.70
2018-12-09T01:00:54.972Z,88.12
2018-12-09T01:01:54.914Z,88.22
2018-12-09T01:02:54.858Z,88.31
2018-12-09T01:03:54.800Z,88.51
2018-12-09T01:04:54.738Z,88.31
2018-12-09T01:05:54.680Z,88.41
2018-12-09T01:06:54.622Z,88.22
2018-12-09T01:07:54.565Z,88.12
2018-12-09T01:08:54.506Z,88.12
2018-12-09T01:09:54.448Z,88.22
2018-12-09T01:10:54.393Z,88.31
2018-12-09T01:11:54.332Z,88.03
2018-12-09T01:12:54.275Z,88.22
2018-12-09T01:13:54.219Z,88.22
2018-12-09T01:14:54.159Z,88.41
2018-12-09T01:15:54.099Z,88.03
2018-12-09T01:16:54.041Z,88.22
2018-12-09T01:17:53.984Z,88.31
2018-12-09T01:18:53.924Z,88.22
2018-12-09T01:19:53.866Z,88.22
2018-12-09T01:20:53.808Z,88.31
2018-12-09T01:21:53.754Z,87.93
2018-12-09T01:22:53.693Z,87.93
2018-12-09T01:23:53.635Z,88.12
2018-12-09T01:24:53.576Z,88.31
2018-12-09T01:25:53.521Z,88.12
2018-12-09T01:26:53.459Z,88.31
2018-12-09T01:27:53.402Z,88.22
2018-12-09T01:28:53.346Z,88.31
2018-12-09T01:29:53.286Z,87.93
2018-12-09T01:30:53.228Z,87.84
2018-12-09T01:31:53.169Z,88.22
2018-12-09T01:32:53.110Z,88.12
2018-12-09T01:33:53.052Z,87.93
2018-12-09T01:34:52.995Z,87.93
2018-12-09T01:35:52.937Z,88.03
2018-12-09T01:36:52.882Z,87.93
2018-12-09T01:37:52.857Z,87.65
2018-12-09T01:38:52.763Z,87.93
2018-12-09T01:39:52.706Z,87.84
2018-12-09T01:40:52.646Z,87.84
2018-12-09T01:41:52.589Z,87.84
2018-12-09T01:42:52.531Z,88.03
2018-12-09T01:43:52.472Z,87.74
2018-12-09T01:44:52.415Z,87.65
2018-12-09T01:45:52.356Z,87.84
2018-12-09T01:46:52.298Z,88.03
2018-12-09T01:47:52.242Z,87.84
2018-12-09T01:48:52.182Z,87.74
2018-12-09T01:49:52.124Z,87.65
2018-12-09T01:50:52.066Z,87.55
2018-12-09T01:51:52.008Z,87.65
2018-12-09T01:52:51.949Z,87.27
2018-12-09T01:53:51.893Z,87.55
2018-12-09T01:54:51.835Z,87.46
2018-12-09T01:55:51.779Z,87.46
2018-12-09T01:56:51.718Z,87.36
2018-12-09T01:57:51.659Z,87.17
2018-12-09T01:58:51.601Z,87.17
2018-12-09T01:59:51.544Z,87.46
2018-12-09T02:00:51.484Z,87.46
2018-12-09T02:01:51.427Z,87.65
2018-12-09T02:02:51.370Z,87.55
2018-12-09T02:03:51.314Z,87.46
2018-12-09T02:04:51.253Z,87.65
2018-12-09T02:05:51.195Z,87.65
2018-12-09T02:06:51.140Z,87.65
2018-12-09T02:07:51.081Z,87.65
2018-12-09T02:08:51.019Z,87.55
2018-12-09T02:09:50.963Z,87.65
2018-12-09T02:10:50.905Z,87.55
2018-12-09T02:11:50.846Z,87.55
2018-12-09T02:12:50.788Z,87.27
2018-12-09T02:13:50.730Z,87.07
2018-12-09T02:14:50.676Z,86.98
2018-12-09T02:15:50.614Z,87.07
2018-12-09T02:16:50.554Z,86.98
2018-12-09T02:17:50.497Z,86.69
2018-12-09T02:18:50.440Z,86.60
2018-12-09T02:19:50.381Z,86.79
2018-12-09T02:20:50.323Z,86.88
2018-12-09T02:21:50.264Z,86.88
2018-12-09T02:22:50.207Z,86.69
2018-12-09T02:23:50.149Z,86.88
2018-12-09T02:24:50.091Z,86.88
2018-12-09T02:25:50.118Z,86.60
2018-12-09T02:26:49.975Z,86.79
2018-12-09T02:27:49.917Z,86.79
2018-12-09T02:28:49.859Z,86.79
2018-12-09T02:29:49.802Z,86.88
2018-12-09T02:30:49.742Z,86.88
2018-12-09T02:31:49.684Z,86.79
2018-12-09T02:32:49.626Z,86.88
2018-12-09T02:33:49.571Z,86.79
2018-12-09T02:34:49.509Z,86.79
2018-12-09T02:35:49.451Z,86.98
2018-12-09T02:36:49.402Z,86.60
2018-12-09T02:37:49.334Z,86.79
2018-12-09T02:38:49.277Z,86.88
2018-12-09T02:39:49.220Z,86.88
2018-12-09T02:40:49.166Z,87.07
2018-12-09T02:41:49.103Z,87.07
2018-12-09T02:42:49.044Z,86.79
2018-12-09T02:43:48.989Z,86.98
2018-12-09T02:44:48.929Z,86.79
2018-12-09T02:45:48.871Z,86.88
2018-12-09T02:46:48.815Z,87.07
2018-12-09T02:47:48.755Z,86.79
2018-12-09T02:48:48.696Z,86.79
2018-12-09T02:49:48.638Z,86.69
2018-12-09T02:50:48.583Z,86.88
2018-12-09T02:51:48.527Z,86.79
2018-12-09T02:52:48.466Z,86.88
2018-12-09T02:53:48.406Z,86.79
2018-12-09T02:54:48.353Z,86.79
2018-12-09T02:55:48.291Z,86.98
2018-12-09T02:56:48.232Z,86.79
2018-12-09T02:57:48.176Z,86.88
2018-12-09T02:58:48.117Z,86.88
2018-12-09T02:59:48.061Z,86.88
2018-12-09T03:00:47.998Z,86.88
2018-12-09T03:01:47.943Z,86.79
2018-12-09T03:02:47.885Z,86.98
2018-12-09T03:03:47.826Z,87.07
2018-12-09T03:04:47.766Z,87.07
2018-12-09T03:05:47.710Z,86.79
2018-12-09T03:06:47.652Z,86.98
2018-12-09T03:07:47.593Z,86.88
2018-12-09T03:08:47.534Z,86.98
2018-12-09T03:09:47.480Z,86.98
2018-12-09T03:10:47.419Z,86.88
2018-12-09T03:11:47.360Z,86.69
2018-12-09T03:12:47.306Z,87.27
2018-12-09T03:13:47.246Z,87.65
2018-12-09T03:14:47.187Z,87.65
2018-12-09T03:15:47.134Z,87.65
2018-12-09T03:16:47.071Z,87.46
2018-12-09T03:17:47.011Z,87.17
2018-12-09T03:18:46.959Z,87.46
2018-12-09T03:19:46.895Z,87.46
2018-12-09T03:20:46.838Z,87.36
2018-12-09T03:21:46.780Z,87.93
2018-12-09T03:22:46.725Z,87.65
2018-12-09T03:23:46.667Z,88.03
2018-12-09T03:24:46.606Z,87.93
2018-12-09T03:25:46.548Z,87.93
2018-12-09T03:26:46.491Z,87.65
2018-12-09T03:27:46.433Z,87.74
2018-12-09T03:28:46.374Z,88.22
2018-12-09T03:29:46.314Z,88.22
2018-12-09T03:30:46.260Z,88.12
2018-12-09T03:31:46.201Z,88.12
2018-12-09T03:32:46.146Z,87.93
2018-12-09T03:33:46.084Z,88.03
2018-12-09T03:34:46.026Z,88.03
2018-12-09T03:35:45.967Z,88.12
2018-12-09T03:36:45.914Z,88.03
2018-12-09T03:37:45.851Z,87.93
2018-12-09T03:38:45.793Z,88.31
2018-12-09T03:39:45.736Z,87.93
2018-12-09T03:40:45.677Z,87.93
2018-12-09T03:41:45.620Z,87.93
2018-12-09T03:42:45.561Z,88.12
2018-12-09T03:43:45.502Z,88.12
2018-12-09T03:44:45.444Z,88.12
2018-12-09T03:45:45.388Z,88.22
2018-12-09T03:46:45.329Z,87.84
2018-12-09T03:47:45.272Z,87.93
2018-12-09T03:48:45.212Z,87.84
2018-12-09T03:49:45.156Z,88.12
2018-12-09T03:50:45.096Z,88.03
2018-12-09T03:51:45.039Z,87.93
2018-12-09T03:52:44.980Z,87.55
2018-12-09T03:53:44.928Z,87.55
2018-12-09T03:54:44.864Z,87.93
2018-12-09T03:55:44.807Z,87.65
2018-12-09T03:56:44.749Z,87.93
2018-12-09T03:57:44.690Z,87.93
2018-12-09T03:58:44.633Z,87.93
2018-12-09T03:59:44.574Z,88.12
2018-12-09T04:00:44.519Z,87.65
2018-12-09T04:01:44.457Z,87.17
2018-12-09T04:02:44.399Z,87.84
2018-12-09T04:03:44.343Z,87.36
2018-12-09T04:04:44.283Z,86.98
2018-12-09T04:05:44.226Z,87.46
2018-12-09T04:06:44.285Z,87.46
2018-12-09T04:07:44.111Z,87.46
2018-12-09T04:08:44.055Z,87.46
2018-12-09T04:09:43.995Z,87.27
2018-12-09T04:10:43.935Z,87.27
2018-12-09T04:11:43.879Z,87.65
2018-12-09T04:12:43.818Z,87.65
2018-12-09T04:13:43.762Z,87.65
2018-12-09T04:14:43.713Z,87.55
2018-12-09T04:15:43.646Z,87.65
2018-12-09T04:16:43.588Z,87.65
2018-12-09T04:17:43.528Z,87.55
2018-12-09T04:18:43.475Z,87.65
2018-12-09T04:19:43.413Z,87.65
2018-12-09T04:20:43.356Z,87.84
2018-12-09T04:21:43.297Z,87.74
2018-12-09T04:22:43.239Z,87.55
2018-12-09T04:23:43.182Z,87.55
2018-12-09T04:24:43.121Z,87.27
2018-12-09T04:25:43.065Z,87.17
2018-12-09T04:26:43.006Z,87.07
2018-12-09T04:27:42.949Z,86.98
2018-12-09T04:28:42.890Z,87.07
2018-12-09T04:29:42.833Z,86.69
2018-12-09T04:30:42.775Z,86.60
2018-12-09T04:31:42.718Z,86.69
2018-12-09T04:32:42.657Z,86.79
2018-12-09T04:33:42.601Z,86.69
2018-12-09T04:34:42.542Z,86.69
2018-12-09T04:35:42.484Z,86.41
2018-12-09T04:36:42.427Z,86.69
2018-12-09T04:37:42.368Z,86.69
2018-12-09T04:38:42.311Z,86.32
2018-12-09T04:39:42.253Z,86.98
2018-12-09T04:40:42.196Z,86.88
2018-12-09T04:41:42.135Z,87.07
2018-12-09T04:42:42.080Z,87.07
2018-12-09T04:43:42.019Z,86.98
2018-12-09T04:44:41.961Z,87.17
2018-12-09T04:45:41.906Z,86.88
2018-12-09T04:46:41.845Z,86.69
2018-12-09T04:47:41.788Z,87.07
2018-12-09T04:48:41.729Z,86.69
2018-12-09T04:49:41.673Z,86.60
2018-12-09T04:50:41.619Z,86.79
2018-12-09T04:51:41.556Z,86.69
2018-12-09T04:52:41.598Z,86.98
2018-12-09T04:53:41.444Z,86.98
2018-12-09T04:54:41.380Z,86.69
2018-12-09T04:55:41.323Z,86.69
2018-12-09T04:56:41.264Z,86.60
2018-12-09T04:57:41.206Z,86.60
2018-12-09T04:58:41.148Z,86.79
2018-12-09T04:59:41.090Z,86.60
2018-12-09T05:00:41.033Z,86.79
2018-12-09T05:01:40.973Z,86.60
2018-12-09T05:02:40.916Z,86.98
2018-12-09T05:03:40.857Z,86.32
2018-12-09T05:04:40.800Z,86.98
2018-12-09T05:05:40.742Z,86.32
2018-12-09T05:06:40.688Z,86.41
2018-12-09T05:07:40.626Z,86.41
2018-12-09T05:08:40.567Z,86.88
2018-12-09T05:09:40.510Z,87.17
2018-12-09T05:10:40.452Z,86.69
2018-12-09T05:11:40.393Z,86.98
2018-12-09T05:12:40.336Z,86.69
2018-12-09T05:13:40.278Z,86.69
2018-12-09T05:14:40.224Z,86.69
2018-12-09T05:15:40.162Z,86.32
2018-12-09T05:16:40.105Z,86.69
2018-12-09T05:17:40.047Z,86.69
2018-12-09T05:18:39.986Z,86.79
2018-12-09T05:19:39.929Z,86.69
2018-12-09T05:20:39.871Z,86.79
2018-12-09T05:21:39.813Z,86.69
2018-12-09T05:22:39.761Z,86.69
2018-12-09T05:23:39.699Z,86.69
2018-12-09T05:24:39.639Z,86.51
2018-12-09T05:25:39.579Z,86.51
2018-12-09T05:26:39.528Z,86.88
2018-12-09T05:27:39.464Z,86.88
2018-12-09T05:28:39.406Z,86.98
2018-12-09T05:29:39.348Z,86.88
2018-12-09T05:30:39.290Z,86.60
2018-12-09T05:31:39.233Z,86.88
2018-12-09T05:32:39.175Z,86.88
2018-12-09T05:33:39.116Z,86.88
2018-12-09T05:34:39.057Z,86.79
2018-12-09T05:35:39.000Z,86.88
2018-12-09T05:36:38.941Z,86.88
2018-12-09T05:37:38.882Z,86.98
2018-12-09T05:38:38.826Z,86.88
2018-12-09T05:39:38.768Z,86.88
2018-12-09T05:40:38.710Z,86.60
2018-12-09T05:41:38.651Z,86.60
2018-12-09T05:42:38.593Z,86.88
2018-12-09T05:43:38.539Z,86.98
2018-12-09T05:44:38.476Z,86.98
2018-12-09T05:45:38.418Z,86.88
2018-12-09T05:46:38.362Z,86.88
2018-12-09T05:47:38.303Z,86.51
2018-12-09T05:48:38.243Z,86.60
2018-12-09T05:49:38.189Z,86.69
2018-12-09T05:50:38.129Z,86.88
2018-12-09T05:51:38.070Z,86.88
2018-12-09T05:52:38.012Z,86.69
2018-12-09T05:53:37.953Z,86.98
2018-12-09T05:54:37.895Z,86.88
2018-12-09T05:55:37.838Z,86.98
2018-12-09T05:56:37.778Z,86.98
2018-12-09T05:57:37.721Z,86.98
2018-12-09T05:58:37.666Z,86.88
2018-12-09T05:59:37.605Z,86.79
2018-12-09T06:00:37.548Z,86.88
2018-12-09T06:01:37.489Z,87.17
2018-12-09T06:02:37.430Z,86.79
2018-12-09T06:03:37.374Z,86.79
2018-12-09T06:04:37.315Z,86.51
2018-12-09T06:05:37.256Z,87.17
2018-12-09T06:06:37.200Z,86.79
2018-12-09T06:07:37.141Z,86.88
2018-12-09T06:08:37.082Z,86.69
2018-12-09T06:09:37.024Z,86.79
2018-12-09T06:10:36.967Z,86.88
2018-12-09T06:11:36.909Z,86.32
2018-12-09T06:12:36.851Z,86.41
2018-12-09T06:13:36.794Z,86.32
2018-12-09T06:14:36.734Z,86.41
2018-12-09T06:15:36.676Z,86.12
2018-12-09T06:16:36.621Z,86.22
2018-12-09T06:17:36.561Z,86.32
2018-12-09T06:18:36.502Z,86.12
2018-12-09T06:19:36.445Z,86.32
2018-12-09T06:20:36.385Z,86.88
2018-12-09T06:21:36.329Z,86.32
2018-12-09T06:22:36.269Z,86.41
2018-12-09T06:23:36.213Z,86.32
2018-12-09T06:24:36.153Z,86.32
2018-12-09T06:25:36.095Z,86.22
2018-12-09T06:26:36.036Z,86.22
2018-12-09T06:27:35.980Z,86.41
2018-12-09T06:28:35.920Z,86.51
2018-12-09T06:29:35.868Z,86.41
2018-12-09T06:30:35.804Z,86.51
2018-12-09T06:31:35.747Z,86.32
2018-12-09T06:32:35.688Z,86.12
2018-12-09T06:33:35.630Z,86.32
2018-12-09T06:34:35.573Z,87.07
2018-12-09T06:35:35.515Z,87.07
2018-12-09T06:36:35.455Z,86.98
2018-12-09T06:37:35.402Z,87.07
2018-12-09T06:38:35.340Z,86.88
2018-12-09T06:39:35.282Z,86.79
2018-12-09T06:40:35.224Z,86.98
2018-12-09T06:41:35.165Z,86.60
2018-12-09T06:42:35.106Z,86.51
2018-12-09T06:43:35.050Z,86.98
2018-12-09T06:44:34.992Z,86.98
2018-12-09T06:45:34.939Z,86.88
2018-12-09T06:46:34.875Z,86.69
2018-12-09T06:47:34.818Z,86.60
2018-12-09T06:48:34.758Z,86.88
2018-12-09T06:49:34.699Z,86.69
2018-12-09T06:50:34.645Z,86.69
2018-12-09T06:51:34.584Z,86.79
2018-12-09T06:52:34.526Z,86.60
2018-12-09T06:53:34.468Z,86.69
2018-12-09T06:54:34.410Z,86.79
2018-12-09T06:55:34.353Z,86.51
2018-12-09T06:56:34.293Z,86.60
2018-12-09T06:57:34.236Z,86.60
2018-12-09T06:58:34.178Z,86.60
2018-12-09T06:59:34.120Z,86.51
2018-12-09T07:00:34.061Z,86.88
2018-12-09T07:01:34.012Z,86.88
2018-12-09T07:02:33.945Z,86.60
2018-12-09T07:03:33.980Z,86.69
2018-12-09T07:04:33.831Z,86.88
2018-12-09T07:05:33.770Z,86.69
2018-12-09T07:06:33.715Z,86.88
2018-12-09T07:07:33.655Z,86.98
2018-12-09T07:08:33.598Z,86.69
2018-12-09T07:09:33.538Z,86.79
2018-12-09T07:10:33.486Z,86.32
2018-12-09T07:11:33.424Z,86.32
2018-12-09T07:12:33.365Z,86.32
2018-12-09T07:13:33.306Z,86.32
2018-12-09T07:14:33.248Z,86.79
2018-12-09T07:15:33.193Z,86.51
2018-12-09T07:16:33.132Z,87.07
2018-12-09T07:17:33.074Z,86.98
2018-12-09T07:18:33.016Z,86.41
2018-12-09T07:19:32.959Z,86.51
2018-12-09T07:20:32.907Z,86.32
2018-12-09T07:21:32.842Z,87.07
2018-12-09T07:22:32.783Z,87.07
2018-12-09T07:23:32.727Z,87.07
2018-12-09T07:24:32.667Z,86.98
2018-12-09T07:25:32.609Z,86.98
2018-12-09T07:26:32.556Z,87.07
2018-12-09T07:27:32.494Z,86.88
2018-12-09T07:28:32.435Z,86.32
2018-12-09T07:29:32.378Z,86.12
2018-12-09T07:30:32.324Z,86.22
2018-12-09T07:31:32.335Z,86.12
2018-12-09T07:32:32.206Z,86.32
2018-12-09T07:33:32.144Z,86.41
2018-12-09T07:34:32.087Z,86.51
2018-12-09T07:35:32.030Z,86.12
2018-12-09T07:36:31.971Z,86.22
2018-12-09T07:37:31.914Z,86.12
2018-12-09T07:38:31.854Z,86.22
2018-12-09T07:39:31.799Z,86.22
2018-12-09T07:40:31.738Z,86.32
2018-12-09T07:41:31.681Z,86.41
2018-12-09T07:42:31.623Z,86.32
2018-12-09T07:43:31.565Z,86.03
2018-12-09T07:44:31.506Z,86.32
2018-12-09T07:45:31.448Z,86.41
2018-12-09T07:46:31.390Z,85.55
2018-12-09T07:47:31.332Z,86.12
2018-12-09T07:48:31.273Z,85.74
2018-12-09T07:49:31.216Z,86.03
2018-12-09T07:50:31.158Z,86.32
2018-12-09T07:51:31.100Z,86.12
2018-12-09T07:52:31.040Z,86.22
2018-12-09T07:53:30.983Z,86.32
2018-12-09T07:54:30.925Z,86.32
2018-12-09T07:55:30.869Z,86.22
2018-12-09T07:56:30.810Z,85.84
2018-12-09T07:57:30.750Z,86.32
2018-12-09T07:58:30.692Z,86.12
2018-12-09T07:59:30.635Z,85.84
2018-12-09T08:00:30.577Z,86.32
2018-12-09T08:01:30.521Z,86.12
2018-12-09T08:02:30.461Z,86.03
2018-12-09T08:03:30.405Z,86.03
2018-12-09T08:04:30.345Z,85.74
2018-12-09T08:05:30.322Z,86.03
2018-12-09T08:06:30.230Z,85.84
2018-12-09T08:07:30.171Z,85.74
2018-12-09T08:08:30.114Z,86.12
2018-12-09T08:09:30.054Z,85.55
2018-12-09T08:10:29.995Z,86.12
2018-12-09T08:11:29.938Z,85.55
2018-12-09T08:12:29.879Z,85.55
2018-12-09T08:13:29.823Z,85.55
2018-12-09T08:14:29.763Z,86.32
2018-12-09T08:15:29.707Z,86.32
2018-12-09T08:16:29.646Z,86.32
2018-12-09T08:17:29.589Z,86.22
2018-12-09T08:18:29.537Z,86.32
2018-12-09T08:19:29.473Z,85.84
2018-12-09T08:20:29.415Z,86.12
2018-12-09T08:21:29.358Z,86.12
2018-12-09T08:22:29.299Z,86.22
2018-12-09T08:23:29.245Z,85.64
2018-12-09T08:24:29.181Z,85.55
2018-12-09T08:25:29.124Z,85.64
2018-12-09T08:26:29.068Z,86.22
2018-12-09T08:27:29.008Z,85.93
2018-12-09T08:28:28.950Z,86.03
2018-12-09T08:29:28.893Z,86.32
2018-12-09T08:30:28.833Z,85.93
2018-12-09T08:31:28.776Z,85.93
2018-12-09T08:32:28.717Z,86.12
2018-12-09T08:33:28.658Z,86.41
2018-12-09T08:34:28.601Z,86.22
2018-12-09T08:35:28.543Z,86.51
2018-12-09T08:36:28.486Z,85.84
2018-12-09T08:37:28.427Z,86.22
2018-12-09T08:38:28.369Z,86.12
2018-12-09T08:39:28.313Z,86.22
2018-12-09T08:40:28.252Z,86.22
2018-12-09T08:41:28.194Z,86.12
2018-12-09T08:42:28.136Z,86.12
2018-12-09T08:43:28.078Z,86.12
2018-12-09T08:44:28.019Z,86.32
2018-12-09T08:45:28.057Z,85.74
2018-12-09T08:46:27.905Z,86.12
2018-12-09T08:47:27.845Z,86.41
2018-12-09T08:48:27.786Z,86.12
2018-12-09T08:49:27.730Z,86.41
2018-12-09T08:50:27.672Z,85.74
2018-12-09T08:51:27.617Z,85.74
2018-12-09T08:52:27.554Z,85.64
2018-12-09T08:53:27.499Z,85.64
2018-12-09T08:54:27.438Z,86.41
2018-12-09T08:55:27.381Z,86.12
2018-12-09T08:56:27.323Z,86.03
2018-12-09T08:57:27.267Z,86.22
2018-12-09T08:58:27.206Z,85.84
2018-12-09T08:59:27.149Z,86.12
2018-12-09T09:00:27.092Z,86.41
2018-12-09T09:01:27.031Z,86.51
2018-12-09T09:02:26.976Z,86.41
2018-12-09T09:03:26.918Z,85.84
2018-12-09T09:04:26.858Z,85.93
2018-12-09T09:05:26.799Z,85.84
2018-12-09T09:06:26.741Z,85.84
2018-12-09T09:07:26.684Z,85.84
2018-12-09T09:08:26.627Z,85.93
2018-12-09T09:09:26.566Z,85.64
2018-12-09T09:10:26.518Z,85.64
2018-12-09T09:11:26.452Z,85.74
2018-12-09T09:12:26.396Z,85.84
2018-12-09T09:13:26.336Z,85.84
2018-12-09T09:14:26.277Z,85.93
2018-12-09T09:15:26.232Z,86.41
2018-12-09T09:16:26.160Z,85.64
2018-12-09T09:17:26.102Z,86.12
2018-12-09T09:18:26.044Z,86.32
2018-12-09T09:19:25.987Z,85.93
2018-12-09T09:20:25.928Z,86.41
2018-12-09T09:21:25.870Z,86.41
2018-12-09T09:22:25.814Z,86.32
2018-12-09T09:23:25.756Z,86.03
2018-12-09T09:24:25.695Z,86.03
2018-12-09T09:25:25.637Z,86.03
2018-12-09T09:26:25.582Z,86.22
2018-12-09T09:27:25.521Z,86.41
2018-12-09T09:28:25.464Z,86.22
2018-12-09T09:29:25.429Z,85.93
2018-12-09T09:30:25.348Z,85.84
2018-12-09T09:31:25.293Z,86.51
2018-12-09T09:32:25.233Z,86.41
2018-12-09T09:33:25.276Z,86.22
2018-12-09T09:34:25.116Z,86.32
2018-12-09T09:35:25.058Z,86.22
2018-12-09T09:36:24.998Z,86.41
2018-12-09T09:37:24.940Z,86.22
2018-12-09T09:38:24.882Z,85.55
2018-12-09T09:39:24.825Z,85.74
2018-12-09T09:40:24.765Z,85.36
2018-12-09T09:41:24.708Z,85.93
2018-12-09T09:42:24.651Z,86.12
2018-12-09T09:43:24.593Z,86.32
2018-12-09T09:44:24.533Z,86.12
2018-12-09T09:45:24.474Z,85.74
2018-12-09T09:46:24.418Z,86.22
2018-12-09T09:47:24.360Z,85.74
2018-12-09T09:48:24.302Z,85.55
2018-12-09T09:49:24.244Z,86.12
2018-12-09T09:50:24.185Z,85.84
2018-12-09T09:51:24.126Z,85.84
2018-12-09T09:52:24.068Z,85.64
2018-12-09T09:53:24.014Z,86.32
2018-12-09T09:54:23.951Z,86.32
2018-12-09T09:55:23.894Z,85.74
2018-12-09T09:56:23.838Z,85.74
2018-12-09T09:57:23.780Z,85.74
2018-12-09T09:58:23.722Z,86.22
2018-12-09T09:59:23.661Z,86.03
2018-12-09T10:00:23.604Z,85.74
2018-12-09T10:01:23.545Z,85.74
2018-12-09T10:02:23.490Z,86.22
2018-12-09T10:03:26.067Z,86.22
2018-12-09T10:04:23.373Z,86.03
2018-12-09T10:05:23.315Z,85.74
2018-12-09T10:06:23.260Z,85.84
2018-12-09T10:07:23.201Z,85.74
2018-12-09T10:08:23.140Z,85.74
2018-12-09T10:09:23.081Z,86.12
2018-12-09T10:10:23.027Z,86.12
2018-12-09T10:11:22.964Z,86.03
2018-12-09T10:12:22.906Z,86.03
2018-12-09T10:13:22.848Z,86.22
2018-12-09T10:14:22.791Z,85.84
2018-12-09T10:15:22.732Z,85.74
2018-12-09T10:16:22.674Z,86.22
2018-12-09T10:17:22.616Z,86.12
2018-12-09T10:18:22.567Z,85.93
2018-12-09T10:19:22.502Z,86.22
2018-12-09T10:20:22.441Z,85.74
2018-12-09T10:21:22.386Z,86.60
2018-12-09T10:22:22.330Z,86.32
2018-12-09T10:23:22.270Z,86.12
2018-12-09T10:24:22.208Z,86.41
2018-12-09T10:25:22.156Z,86.32
2018-12-09T10:26:22.095Z,86.03
2018-12-09T10:27:22.036Z,86.12
2018-12-09T10:28:21.982Z,86.22
2018-12-09T10:29:21.921Z,86.32
2018-12-09T10:30:21.862Z,86.60
2018-12-09T10:31:21.803Z,86.69
2018-12-09T10:32:21.745Z,86.32
2018-12-09T10:33:21.685Z,86.22
2018-12-09T10:34:21.629Z,86.12
2018-12-09T10:35:21.571Z,86.41
2018-12-09T10:36:21.512Z,87.55
2018-12-09T10:37:21.456Z,86.69
2018-12-09T10:38:21.399Z,86.88
2018-12-09T10:39:21.342Z,86.51
2018-12-09T10:40:21.280Z,86.79
2018-12-09T10:41:21.222Z,86.60
2018-12-09T10:42:21.166Z,86.79
2018-12-09T10:43:21.107Z,86.88
2018-12-09T10:44:21.049Z,86.69
2018-12-09T10:45:20.989Z,86.98
2018-12-09T10:46:21.845Z,86.88
2018-12-09T10:47:20.872Z,86.51
2018-12-09T10:48:20.815Z,86.88
2018-12-09T10:49:20.757Z,87.07
2018-12-09T10:50:20.699Z,86.79
2018-12-09T10:51:20.641Z,86.98
2018-12-09T10:52:20.582Z,86.79
2018-12-09T10:53:20.525Z,86.98
2018-12-09T10:54:20.471Z,86.79
2018-12-09T10:55:20.407Z,86.79
2018-12-09T10:56:20.351Z,86.88
2018-12-09T10:57:20.292Z,86.88
2018-12-09T10:58:20.236Z,86.88
2018-12-09T10:59:20.176Z,86.69
2018-12-09T11:00:20.117Z,87.07
2018-12-09T11:01:20.059Z,86.69
2018-12-09T11:02:20.001Z,86.88
2018-12-09T11:03:19.944Z,86.88
2018-12-09T11:04:19.885Z,86.79
2018-12-09T11:05:19.827Z,86.79
2018-12-09T11:06:19.769Z,86.88
2018-12-09T11:07:19.711Z,86.79
2018-12-09T11:08:19.655Z,86.60
2018-12-09T11:09:19.596Z,86.88
2018-12-09T11:10:19.538Z,86.88
2018-12-09T11:11:19.479Z,86.98
2018-12-09T11:12:19.421Z,86.69
2018-12-09T11:13:19.427Z,86.60
2018-12-09T11:14:19.305Z,86.69
2018-12-09T11:15:19.251Z,86.69
2018-12-09T11:16:19.188Z,86.79
2018-12-09T11:17:19.130Z,86.79
2018-12-09T11:18:19.072Z,86.69
2018-12-09T11:19:19.018Z,86.60
2018-12-09T11:20:18.959Z,86.79
2018-12-09T11:21:18.898Z,86.98
2018-12-09T11:22:18.840Z,86.51
2018-12-09T11:23:18.784Z,86.88
2018-12-09T11:24:18.724Z,86.51
2018-12-09T11:25:18.667Z,86.32
2018-12-09T11:26:18.608Z,86.41
2018-12-09T11:27:18.553Z,86.32
2018-12-09T11:28:18.589Z,86.32
2018-12-09T11:29:18.435Z,86.51
2018-12-09T11:30:18.376Z,86.41
2018-12-09T11:31:18.317Z,86.41
2018-12-09T11:32:18.258Z,86.51
2018-12-09T11:33:18.204Z,86.41
2018-12-09T11:34:18.142Z,86.41
2018-12-09T11:35:18.086Z,86.22
2018-12-09T11:36:18.028Z,86.12
2018-12-09T11:37:17.969Z,86.12
2018-12-09T11:38:17.910Z,86.41
2018-12-09T11:39:17.853Z,85.93
2018-12-09T11:40:17.796Z,86.41
2018-12-09T11:41:17.738Z,86.32
2018-12-09T11:42:17.678Z,85.84
2018-12-09T11:43:17.624Z,85.84
2018-12-09T11:44:17.562Z,85.74
2018-12-09T11:45:17.513Z,85.84
2018-12-09T11:46:17.462Z,85.84
2018-12-09T11:47:17.393Z,86.12
2018-12-09T11:48:17.331Z,86.32
2018-12-09T11:49:17.272Z,85.64
2018-12-09T11:50:17.214Z,86.22
2018-12-09T11:51:17.157Z,86.22
2018-12-09T11:52:17.096Z,85.74
2018-12-09T11:53:17.040Z,86.12
2018-12-09T11:54:16.982Z,86.41
2018-12-09T11:55:16.924Z,86.51
2018-12-09T11:56:16.866Z,86.41
2018-12-09T11:57:16.808Z,86.03
2018-12-09T11:58:16.750Z,85.84
2018-12-09T11:59:16.693Z,86.51
2018-12-09T12:00:16.632Z,86.22
2018-12-09T12:01:16.574Z,86.22
2018-12-09T12:02:20.030Z,86.22
2018-12-09T12:03:16.606Z,86.22
2018-12-09T12:04:16.400Z,86.32
2018-12-09T12:05:16.341Z,86.60
2018-12-09T12:06:16.287Z,86.22
2018-12-09T12:07:16.234Z,86.51
2018-12-09T12:08:16.168Z,86.22
2018-12-09T12:09:16.110Z,86.32
2018-12-09T12:10:16.054Z,86.22
2018-12-09T12:11:15.994Z,86.12
2018-12-09T12:12:15.935Z,86.22
2018-12-09T12:13:15.890Z,86.12
2018-12-09T12:14:15.819Z,86.32
2018-12-09T12:15:15.762Z,86.60
2018-12-09T12:16:15.703Z,86.32
2018-12-09T12:17:16.320Z,86.22
2018-12-09T12:18:15.590Z,86.22
2018-12-09T12:19:15.533Z,86.22
2018-12-09T12:20:15.472Z,85.84
2018-12-09T12:21:15.416Z,85.93
2018-12-09T12:22:15.359Z,86.41
2018-12-09T12:23:15.298Z,86.32
2018-12-09T12:24:15.239Z,86.32
2018-12-09T12:25:15.180Z,86.22
2018-12-09T12:26:15.126Z,86.12
2018-12-09T12:27:15.065Z,86.12
2018-12-09T12:28:15.006Z,85.84
2018-12-09T12:29:14.947Z,86.22
2018-12-09T12:30:14.889Z,86.12
2018-12-09T12:31:14.833Z,86.32
2018-12-09T12:32:14.774Z,86.32
2018-12-09T12:33:14.717Z,86.22
2018-12-09T12:34:14.659Z,86.12
2018-12-09T12:35:14.601Z,86.12
2018-12-09T12:36:14.543Z,86.32
2018-12-09T12:37:14.485Z,86.22
2018-12-09T12:38:14.425Z,86.32
2018-12-09T12:39:14.368Z,86.41
2018-12-09T12:40:14.309Z,86.03
2018-12-09T12:41:14.250Z,86.41
2018-12-09T12:42:14.193Z,85.93
2018-12-09T12:43:14.135Z,86.22
2018-12-09T12:44:14.080Z,86.22
2018-12-09T12:45:14.020Z,86.32
2018-12-09T12:46:13.960Z,86.41
2018-12-09T12:47:13.950Z,86.22
2018-12-09T12:48:13.843Z,86.41
2018-12-09T12:49:13.793Z,86.12
2018-12-09T12:50:13.730Z,86.12
2018-12-09T12:51:13.671Z,86.12
2018-12-09T12:52:13.612Z,86.12